^^
Paulen-Weather Station Historical Data
Daily Summary for May 17, 2022 Units:  Both    English   Metric
Daily Weekly Monthly Yearly Custom
  High: Low: Average:
Temperature: 55.4 °F /  13 °C 48.2 °F /  9 °C 52.5 °F /  11.4 °C
Dew Point: 46.4 °F /  8 °C 37.4 °F /  3 °C 42.4 °F /  5.8 °C
Humidity: 77% 59% 69%
Wind Speed: 21.7mph /  35km/h - 11.1mph /  17.8km/h
Wind Gust: 19.9mph /  32km/h - -
Wind- - ENE
Pressure: 30.3 in /  1025.94 hPa 30.2 in /  1021.98 hPa -
Precipitation: 0 in /  0 mm    
Historical Graphs
 
 
Tabular Data for May 17, 2022
Time Temperature Dew Point Pressure Wind Wind Speed Wind Gust Humidity Rainfall Rate (Hourly) solar
00:04 51.8 °F /  11 °C 39.2 °F /  4 °C 30.2in /  1021.98hPa N 8.7mph /  14km/h 7.5mph /  12km/h 60% 0in /  0mm 0 W/m2
00:09 51.8 °F /  11 °C 39.2 °F /  4 °C 30.2in /  1021.98hPa N 8.1mph /  13km/h 7.5mph /  12km/h 64% 0in /  0mm 0 W/m2
00:14 51.8 °F /  11 °C 41 °F /  5 °C 30.2in /  1021.98hPa N 8.7mph /  14km/h 7.5mph /  12km/h 66% 0in /  0mm 0 W/m2
00:19 51.8 °F /  11 °C 41 °F /  5 °C 30.2in /  1021.98hPa N 8.1mph /  13km/h 7.5mph /  12km/h 70% 0in /  0mm 0 W/m2
00:24 50 °F /  10 °C 42.8 °F /  6 °C 30.2in /  1022.01hPa N 9.9mph /  16km/h 9.9mph /  16km/h 72% 0in /  0mm 0 W/m2
00:29 50 °F /  10 °C 41 °F /  5 °C 30.2in /  1022.05hPa N 11.2mph /  18km/h 9.9mph /  16km/h 70% 0in /  0mm 0 W/m2
00:34 50 °F /  10 °C 41 °F /  5 °C 30.2in /  1022.08hPa N 11.2mph /  18km/h 10.6mph /  17km/h 69% 0in /  0mm 0 W/m2
00:39 50 °F /  10 °C 41 °F /  5 °C 30.2in /  1022.18hPa N 10.6mph /  17km/h 9.3mph /  15km/h 71% 0in /  0mm 0 W/m2
00:44 50 °F /  10 °C 41 °F /  5 °C 30.2in /  1022.18hPa N 11.2mph /  18km/h 9.9mph /  16km/h 71% 0in /  0mm 0 W/m2
00:49 50 °F /  10 °C 41 °F /  5 °C 30.2in /  1022.18hPa N 10.6mph /  17km/h 9.3mph /  15km/h 72% 0in /  0mm 0 W/m2
00:54 50 °F /  10 °C 41 °F /  5 °C 30.2in /  1022.22hPa N 11.8mph /  19km/h 9.3mph /  15km/h 73% 0in /  0mm 0 W/m2
00:59 50 °F /  10 °C 41 °F /  5 °C 30.2in /  1022.25hPa N 10.6mph /  17km/h 9.3mph /  15km/h 73% 0in /  0mm 0 W/m2
01:04 50 °F /  10 °C 42.8 °F /  6 °C 30.2in /  1022.28hPa N 9.3mph /  15km/h 7.5mph /  12km/h 74% 0in /  0mm 0 W/m2
01:09 50 °F /  10 °C 41 °F /  5 °C 30.2in /  1022.32hPa N 9.3mph /  15km/h 8.1mph /  13km/h 74% 0in /  0mm 0 W/m2
01:14 50 °F /  10 °C 41 °F /  5 °C 30.2in /  1022.32hPa N 9.3mph /  15km/h 8.1mph /  13km/h 73% 0in /  0mm 0 W/m2
01:19 50 °F /  10 °C 41 °F /  5 °C 30.2in /  1022.32hPa N 8.7mph /  14km/h 6.8mph /  11km/h 73% 0in /  0mm 0 W/m2
01:24 50 °F /  10 °C 41 °F /  5 °C 30.2in /  1022.42hPa N 7.5mph /  12km/h 6.2mph /  10km/h 73% 0in /  0mm 0 W/m2
01:29 50 °F /  10 °C 41 °F /  5 °C 30.2in /  1022.45hPa N 8.1mph /  13km/h 6.2mph /  10km/h 74% 0in /  0mm 0 W/m2
01:34 50 °F /  10 °C 41 °F /  5 °C 30.2in /  1022.52hPa N 6.2mph /  10km/h 5.6mph /  9km/h 74% 0in /  0mm 0 W/m2
01:39 50 °F /  10 °C 41 °F /  5 °C 30.2in /  1022.59hPa N 5.6mph /  9km/h 5mph /  8km/h 74% 0in /  0mm 0 W/m2
01:44 50 °F /  10 °C 41 °F /  5 °C 30.2in /  1022.66hPa N 5.6mph /  9km/h 4.3mph /  7km/h 72% 0in /  0mm 0 W/m2
01:49 50 °F /  10 °C 41 °F /  5 °C 30.2in /  1022.72hPa N 4.3mph /  7km/h 4.3mph /  7km/h 72% 0in /  0mm 0 W/m2
01:54 50 °F /  10 °C 41 °F /  5 °C 30.2in /  1022.72hPa N 4.3mph /  7km/h 4.3mph /  7km/h 70% 0in /  0mm 0 W/m2
01:59 50 °F /  10 °C 37.4 °F /  3 °C 30.2in /  1022.72hPa N 3.7mph /  6km/h 4.3mph /  7km/h 64% 0in /  0mm 0 W/m2
02:04 50 °F /  10 °C 37.4 °F /  3 °C 30.2in /  1022.76hPa N 4.3mph /  7km/h 4.3mph /  7km/h 63% 0in /  0mm 0 W/m2
02:09 48.2 °F /  9 °C 37.4 °F /  3 °C 30.2in /  1022.76hPa N 5mph /  8km/h 5mph /  8km/h 65% 0in /  0mm 0 W/m2
02:14 48.2 °F /  9 °C 39.2 °F /  4 °C 30.2in /  1022.79hPa NNW 5.6mph /  9km/h 5mph /  8km/h 68% 0in /  0mm 0 W/m2
02:19 48.2 °F /  9 °C 39.2 °F /  4 °C 30.2in /  1022.82hPa N 5mph /  8km/h 4.3mph /  7km/h 71% 0in /  0mm 0 W/m2
02:24 50 °F /  10 °C 41 °F /  5 °C 30.2in /  1022.79hPa N 5mph /  8km/h 4.3mph /  7km/h 72% 0in /  0mm 0 W/m2
02:29 50 °F /  10 °C 41 °F /  5 °C 30.2in /  1022.82hPa N 6.2mph /  10km/h 4.3mph /  7km/h 71% 0in /  0mm 0 W/m2
02:34 50 °F /  10 °C 39.2 °F /  4 °C 30.2in /  1022.82hPa N 6.2mph /  10km/h 6.2mph /  10km/h 69% 0in /  0mm 0 W/m2
02:39 50 °F /  10 °C 39.2 °F /  4 °C 30.2in /  1022.86hPa N 7.5mph /  12km/h 6.8mph /  11km/h 66% 0in /  0mm 0 W/m2
02:44 50 °F /  10 °C 39.2 °F /  4 °C 30.2in /  1022.93hPa N 7.5mph /  12km/h 6.8mph /  11km/h 67% 0in /  0mm 0 W/m2
02:49 50 °F /  10 °C 39.2 °F /  4 °C 30.2in /  1022.99hPa N 8.1mph /  13km/h 6.8mph /  11km/h 68% 0in /  0mm 0 W/m2
02:54 50 °F /  10 °C 41 °F /  5 °C 30.2in /  1022.93hPa N 8.7mph /  14km/h 7.5mph /  12km/h 70% 0in /  0mm 0 W/m2
02:59 48.2 °F /  9 °C 41 °F /  5 °C 30.2in /  1022.96hPa N 8.7mph /  14km/h 6.8mph /  11km/h 73% 0in /  0mm 0 W/m2
03:04 48.2 °F /  9 °C 41 °F /  5 °C 30.2in /  1022.96hPa N 8.7mph /  14km/h 6.8mph /  11km/h 74% 0in /  0mm 0 W/m2
03:09 48.2 °F /  9 °C 41 °F /  5 °C 30.2in /  1022.96hPa N 7.5mph /  12km/h 5.6mph /  9km/h 75% 0in /  0mm 0 W/m2
03:14 48.2 °F /  9 °C 41 °F /  5 °C 30.2in /  1022.96hPa N 8.1mph /  13km/h 7.5mph /  12km/h 75% 0in /  0mm 0 W/m2
03:19 48.2 °F /  9 °C 41 °F /  5 °C 30.2in /  1022.96hPa N 9.3mph /  15km/h 8.7mph /  14km/h 73% 0in /  0mm 0 W/m2
03:24 48.2 °F /  9 °C 41 °F /  5 °C 30.2in /  1022.96hPa N 8.7mph /  14km/h 7.5mph /  12km/h 74% 0in /  0mm 0 W/m2
03:29 48.2 °F /  9 °C 41 °F /  5 °C 30.2in /  1022.96hPa N 7.5mph /  12km/h 6.2mph /  10km/h 76% 0in /  0mm 0 W/m2
03:34 48.2 °F /  9 °C 41 °F /  5 °C 30.2in /  1022.99hPa N 8.7mph /  14km/h 8.1mph /  13km/h 77% 0in /  0mm 0 W/m2
03:39 48.2 °F /  9 °C 41 °F /  5 °C 30.2in /  1022.96hPa N 10.6mph /  17km/h 9.3mph /  15km/h 76% 0in /  0mm 0 W/m2
03:44 48.2 °F /  9 °C 41 °F /  5 °C 30.2in /  1022.96hPa N 9.9mph /  16km/h 8.7mph /  14km/h 76% 0in /  0mm 0 W/m2
03:49 48.2 °F /  9 °C 41 °F /  5 °C 30.2in /  1022.96hPa N 8.1mph /  13km/h 8.1mph /  13km/h 73% 0in /  0mm 0 W/m2
03:54 48.2 °F /  9 °C 39.2 °F /  4 °C 30.2in /  1022.93hPa N 8.1mph /  13km/h 6.8mph /  11km/h 71% 0in /  0mm 0 W/m2
03:59 48.2 °F /  9 °C 39.2 °F /  4 °C 30.2in /  1022.99hPa N 5.6mph /  9km/h 5mph /  8km/h 70% 0in /  0mm 0 W/m2
04:04 48.2 °F /  9 °C 39.2 °F /  4 °C 30.2in /  1022.96hPa N 6.8mph /  11km/h 5.6mph /  9km/h 70% 0in /  0mm 0 W/m2
04:09 48.2 °F /  9 °C 39.2 °F /  4 °C 30.2in /  1023.03hPa N 8.1mph /  13km/h 6.8mph /  11km/h 67% 0in /  0mm 0 W/m2
04:14 48.2 °F /  9 °C 39.2 °F /  4 °C 30.2in /  1023.06hPa N 8.1mph /  13km/h 6.8mph /  11km/h 67% 0in /  0mm 0 W/m2
04:19 48.2 °F /  9 °C 41 °F /  5 °C 30.2in /  1023.06hPa N 8.7mph /  14km/h 8.7mph /  14km/h 71% 0in /  0mm 0 W/m2
04:24 48.2 °F /  9 °C 41 °F /  5 °C 30.2in /  1023.13hPa N 10.6mph /  17km/h 8.7mph /  14km/h 75% 0in /  0mm 0 W/m2
04:29 48.2 °F /  9 °C 41 °F /  5 °C 30.2in /  1023.16hPa N 9.9mph /  16km/h 8.1mph /  13km/h 77% 0in /  0mm 0 W/m2
04:34 48.2 °F /  9 °C 41 °F /  5 °C 30.2in /  1023.16hPa N 10.6mph /  17km/h 8.7mph /  14km/h 77% 0in /  0mm 0 W/m2
04:39 48.2 °F /  9 °C 41 °F /  5 °C 30.2in /  1023.13hPa N 10.6mph /  17km/h 8.7mph /  14km/h 77% 0in /  0mm 7 W/m2
04:44 48.2 °F /  9 °C 41 °F /  5 °C 30.2in /  1023.1hPa N 9.9mph /  16km/h 8.1mph /  13km/h 77% 0in /  0mm 9 W/m2
04:49 48.2 °F /  9 °C 41 °F /  5 °C 30.2in /  1023.1hPa N 8.7mph /  14km/h 7.5mph /  12km/h 77% 0in /  0mm 12 W/m2
04:54 48.2 °F /  9 °C 41 °F /  5 °C 30.2in /  1023.2hPa N 9.9mph /  16km/h 8.7mph /  14km/h 77% 0in /  0mm 16 W/m2
04:59 48.2 °F /  9 °C 41 °F /  5 °C 30.2in /  1023.2hPa N 9.9mph /  16km/h 8.1mph /  13km/h 77% 0in /  0mm 18 W/m2
05:04 48.2 °F /  9 °C 41 °F /  5 °C 30.2in /  1023.2hPa N 8.7mph /  14km/h 6.8mph /  11km/h 76% 0in /  0mm 19 W/m2
05:09 48.2 °F /  9 °C 41 °F /  5 °C 30.2in /  1023.16hPa N 8.7mph /  14km/h 6.8mph /  11km/h 76% 0in /  0mm 23 W/m2
05:14 48.2 °F /  9 °C 41 °F /  5 °C 30.2in /  1023.13hPa N 9.9mph /  16km/h 7.5mph /  12km/h 76% 0in /  0mm 28 W/m2
05:19 48.2 °F /  9 °C 41 °F /  5 °C 30.2in /  1023.13hPa N 8.7mph /  14km/h 6.8mph /  11km/h 76% 0in /  0mm 32 W/m2
05:24 48.2 °F /  9 °C 41 °F /  5 °C 30.2in /  1023.16hPa N 8.7mph /  14km/h 6.8mph /  11km/h 76% 0in /  0mm 35 W/m2
05:29 48.2 °F /  9 °C 41 °F /  5 °C 30.2in /  1023.2hPa N 8.1mph /  13km/h 6.8mph /  11km/h 76% 0in /  0mm 42 W/m2
05:34 48.2 °F /  9 °C 41 °F /  5 °C 30.2in /  1023.23hPa N 9.3mph /  15km/h 7.5mph /  12km/h 76% 0in /  0mm 51 W/m2
05:39 48.2 °F /  9 °C 41 °F /  5 °C 30.2in /  1023.3hPa N 10.6mph /  17km/h 9.3mph /  15km/h 75% 0in /  0mm 60 W/m2
05:44 48.2 °F /  9 °C 41 °F /  5 °C 30.2in /  1023.4hPa N 9.9mph /  16km/h 7.5mph /  12km/h 75% 0in /  0mm 72 W/m2
05:49 48.2 °F /  9 °C 41 °F /  5 °C 30.2in /  1023.47hPa N 10.6mph /  17km/h 9.3mph /  15km/h 75% 0in /  0mm 83 W/m2
05:54 48.2 °F /  9 °C 41 °F /  5 °C 30.2in /  1023.47hPa N 11.2mph /  18km/h 9.3mph /  15km/h 74% 0in /  0mm 84 W/m2
05:59 48.2 °F /  9 °C 41 °F /  5 °C 30.2in /  1023.54hPa N 10.6mph /  17km/h 8.7mph /  14km/h 74% 0in /  0mm 98 W/m2
06:04 48.2 °F /  9 °C 41 °F /  5 °C 30.2in /  1023.54hPa N 9.3mph /  15km/h 8.7mph /  14km/h 73% 0in /  0mm 84 W/m2
06:09 48.2 °F /  9 °C 41 °F /  5 °C 30.2in /  1023.64hPa N 9.3mph /  15km/h 7.5mph /  12km/h 73% 0in /  0mm 70 W/m2
06:14 48.2 °F /  9 °C 41 °F /  5 °C 30.2in /  1023.67hPa N 8.7mph /  14km/h 7.5mph /  12km/h 73% 0in /  0mm 86 W/m2
06:19 48.2 °F /  9 °C 41 °F /  5 °C 30.2in /  1023.71hPa N 8.1mph /  13km/h 6.2mph /  10km/h 73% 0in /  0mm 102 W/m2
06:24 50 °F /  10 °C 41 °F /  5 °C 30.2in /  1023.77hPa N 8.1mph /  13km/h 8.1mph /  13km/h 72% 0in /  0mm 120 W/m2
06:29 50 °F /  10 °C 41 °F /  5 °C 30.2in /  1023.84hPa N 8.1mph /  13km/h 8.1mph /  13km/h 74% 0in /  0mm 107 W/m2
06:34 50 °F /  10 °C 41 °F /  5 °C 30.2in /  1023.87hPa N 9.9mph /  16km/h 8.1mph /  13km/h 73% 0in /  0mm 107 W/m2
06:39 50 °F /  10 °C 41 °F /  5 °C 30.2in /  1023.91hPa N 9.9mph /  16km/h 8.1mph /  13km/h 72% 0in /  0mm 155 W/m2
06:44 50 °F /  10 °C 41 °F /  5 °C 30.2in /  1023.94hPa N 11.2mph /  18km/h 9.9mph /  16km/h 71% 0in /  0mm 178 W/m2
06:49 50 °F /  10 °C 41 °F /  5 °C 30.2in /  1023.94hPa N 9.9mph /  16km/h 8.7mph /  14km/h 70% 0in /  0mm 193 W/m2
06:54 50 °F /  10 °C 41 °F /  5 °C 30.2in /  1023.94hPa N 10.6mph /  17km/h 9.9mph /  16km/h 70% 0in /  0mm 202 W/m2
06:59 50 °F /  10 °C 41 °F /  5 °C 30.2in /  1024.01hPa N 10.6mph /  17km/h 9.3mph /  15km/h 70% 0in /  0mm 213 W/m2
07:04 50 °F /  10 °C 41 °F /  5 °C 30.2in /  1024.08hPa N 9.9mph /  16km/h 8.1mph /  13km/h 70% 0in /  0mm 225 W/m2
07:09 50 °F /  10 °C 41 °F /  5 °C 30.2in /  1024.11hPa N 9.3mph /  15km/h 8.1mph /  13km/h 71% 0in /  0mm 241 W/m2
07:14 50 °F /  10 °C 41 °F /  5 °C 30.2in /  1024.11hPa N 9.3mph /  15km/h 8.1mph /  13km/h 71% 0in /  0mm 253 W/m2
07:19 50 °F /  10 °C 41 °F /  5 °C 30.2in /  1024.15hPa N 10.6mph /  17km/h 8.7mph /  14km/h 71% 0in /  0mm 271 W/m2
07:24 50 °F /  10 °C 41 °F /  5 °C 30.2in /  1024.18hPa N 9.9mph /  16km/h 8.7mph /  14km/h 71% 0in /  0mm 285 W/m2
07:29 51.8 °F /  11 °C 42.8 °F /  6 °C 30.3in /  1024.31hPa NNE 8.1mph /  13km/h 6.2mph /  10km/h 69% 0in /  0mm 313 W/m2
07:34 51.8 °F /  11 °C 41 °F /  5 °C 30.3in /  1024.38hPa NNE 12.4mph /  20km/h 11.2mph /  18km/h 66% 0in /  0mm 313 W/m2
07:39 53.6 °F /  12 °C 41 °F /  5 °C 30.3in /  1024.45hPa NNE 13mph /  21km/h 9.9mph /  16km/h 63% 0in /  0mm 301 W/m2
07:44 53.6 °F /  12 °C 41 °F /  5 °C 30.3in /  1024.48hPa NNE 13mph /  21km/h 10.6mph /  17km/h 62% 0in /  0mm 288 W/m2
07:49 53.6 °F /  12 °C 41 °F /  5 °C 30.3in /  1024.52hPa NNE 11.8mph /  19km/h 13mph /  21km/h 63% 0in /  0mm 315 W/m2
07:54 53.6 °F /  12 °C 41 °F /  5 °C 30.3in /  1024.59hPa NNE 14.9mph /  24km/h 14.3mph /  23km/h 62% 0in /  0mm 323 W/m2
07:59 53.6 °F /  12 °C 39.2 °F /  4 °C 30.3in /  1024.59hPa NNE 17.4mph /  28km/h 14.3mph /  23km/h 61% 0in /  0mm 295 W/m2
08:04 51.8 °F /  11 °C 39.2 °F /  4 °C 30.3in /  1024.65hPa NNE 16.2mph /  26km/h 14.3mph /  23km/h 61% 0in /  0mm 260 W/m2
08:09 51.8 °F /  11 °C 41 °F /  5 °C 30.3in /  1024.62hPa NNE 14.3mph /  23km/h 13mph /  21km/h 63% 0in /  0mm 260 W/m2
08:14 51.8 °F /  11 °C 41 °F /  5 °C 30.3in /  1024.69hPa NNE 14.3mph /  23km/h 13mph /  21km/h 62% 0in /  0mm 244 W/m2
08:19 51.8 °F /  11 °C 41 °F /  5 °C 30.3in /  1024.76hPa NNE 14.3mph /  23km/h 10.6mph /  17km/h 62% 0in /  0mm 241 W/m2
08:24 51.8 °F /  11 °C 39.2 °F /  4 °C 30.3in /  1024.82hPa NNE 14.9mph /  24km/h 12.4mph /  20km/h 61% 0in /  0mm 253 W/m2
08:29 51.8 °F /  11 °C 39.2 °F /  4 °C 30.3in /  1024.79hPa NNE 13mph /  21km/h 11.2mph /  18km/h 62% 0in /  0mm 260 W/m2
08:34 51.8 °F /  11 °C 39.2 °F /  4 °C 30.3in /  1024.79hPa NNE 14.3mph /  23km/h 11.8mph /  19km/h 61% 0in /  0mm 278 W/m2
08:39 51.8 °F /  11 °C 39.2 °F /  4 °C 30.3in /  1024.86hPa N 14.9mph /  24km/h 11.8mph /  19km/h 62% 0in /  0mm 279 W/m2
08:44 51.8 °F /  11 °C 39.2 °F /  4 °C 30.3in /  1024.92hPa NNE 16.2mph /  26km/h 13.7mph /  22km/h 61% 0in /  0mm 299 W/m2
08:49 53.6 °F /  12 °C 39.2 °F /  4 °C 30.3in /  1024.96hPa NNE 15.5mph /  25km/h 12.4mph /  20km/h 62% 0in /  0mm 313 W/m2
08:54 53.6 °F /  12 °C 41 °F /  5 °C 30.3in /  1025.03hPa NNE 15.5mph /  25km/h 13.7mph /  22km/h 62% 0in /  0mm 360 W/m2
08:59 53.6 °F /  12 °C 41 °F /  5 °C 30.3in /  1025.06hPa NNE 14.9mph /  24km/h 13.7mph /  22km/h 63% 0in /  0mm 406 W/m2
09:04 53.6 °F /  12 °C 42.8 °F /  6 °C 30.3in /  1025.13hPa NNE 13mph /  21km/h 9.9mph /  16km/h 65% 0in /  0mm 429 W/m2
09:09 53.6 °F /  12 °C 42.8 °F /  6 °C 30.3in /  1025.23hPa N 14.3mph /  23km/h 13.7mph /  22km/h 65% 0in /  0mm 468 W/m2
09:14 53.6 °F /  12 °C 42.8 °F /  6 °C 30.3in /  1025.23hPa NNE 16.8mph /  27km/h 14.3mph /  23km/h 65% 0in /  0mm 489 W/m2
09:19 53.6 °F /  12 °C 42.8 °F /  6 °C 30.3in /  1025.23hPa NNE 16.8mph /  27km/h 13.7mph /  22km/h 67% 0in /  0mm 501 W/m2
09:24 53.6 °F /  12 °C 42.8 °F /  6 °C 30.3in /  1025.23hPa N 16.8mph /  27km/h 13.7mph /  22km/h 67% 0in /  0mm 492 W/m2
09:29 53.6 °F /  12 °C 44.6 °F /  7 °C 30.3in /  1025.3hPa NNE 13.7mph /  22km/h 11.8mph /  19km/h 68% 0in /  0mm 457 W/m2
09:34 53.6 °F /  12 °C 44.6 °F /  7 °C 30.3in /  1025.33hPa NNE 15.5mph /  25km/h 12.4mph /  20km/h 68% 0in /  0mm 457 W/m2
09:39 53.6 °F /  12 °C 44.6 °F /  7 °C 30.3in /  1025.36hPa NNE 16.2mph /  26km/h 13mph /  21km/h 68% 0in /  0mm 443 W/m2
09:44 53.6 °F /  12 °C 44.6 °F /  7 °C 30.3in /  1025.4hPa N 16.2mph /  26km/h 14.3mph /  23km/h 68% 0in /  0mm 455 W/m2
09:49 53.6 °F /  12 °C 44.6 °F /  7 °C 30.3in /  1025.47hPa N 18.6mph /  30km/h 16.2mph /  26km/h 69% 0in /  0mm 455 W/m2
09:54 53.6 °F /  12 °C 44.6 °F /  7 °C 30.3in /  1025.43hPa NNE 16.2mph /  26km/h 13.7mph /  22km/h 70% 0in /  0mm 445 W/m2
09:59 53.6 °F /  12 °C 44.6 °F /  7 °C 30.3in /  1025.5hPa N 18.6mph /  30km/h 15.5mph /  25km/h 70% 0in /  0mm 455 W/m2
10:04 53.6 °F /  12 °C 44.6 °F /  7 °C 30.3in /  1025.53hPa NNE 18mph /  29km/h 15.5mph /  25km/h 70% 0in /  0mm 455 W/m2
10:09 53.6 °F /  12 °C 44.6 °F /  7 °C 30.3in /  1025.57hPa N 18mph /  29km/h 13.7mph /  22km/h 70% 0in /  0mm 441 W/m2
10:14 53.6 °F /  12 °C 44.6 °F /  7 °C 30.3in /  1025.57hPa N 15.5mph /  25km/h 13mph /  21km/h 71% 0in /  0mm 454 W/m2
10:19 53.6 °F /  12 °C 44.6 °F /  7 °C 30.3in /  1025.6hPa NNE 16.2mph /  26km/h 12.4mph /  20km/h 72% 0in /  0mm 466 W/m2
10:24 53.6 °F /  12 °C 44.6 °F /  7 °C 30.3in /  1025.64hPa NNE 14.3mph /  23km/h 11.8mph /  19km/h 72% 0in /  0mm 482 W/m2
10:29 53.6 °F /  12 °C 44.6 °F /  7 °C 30.3in /  1025.67hPa NNE 18mph /  29km/h 16.8mph /  27km/h 72% 0in /  0mm 508 W/m2
10:34 53.6 °F /  12 °C 44.6 °F /  7 °C 30.3in /  1025.7hPa NNE 18.6mph /  30km/h 14.9mph /  24km/h 72% 0in /  0mm 529 W/m2
10:39 53.6 °F /  12 °C 44.6 °F /  7 °C 30.3in /  1025.74hPa N 19.3mph /  31km/h 16.2mph /  26km/h 71% 0in /  0mm 621 W/m2
10:44 53.6 °F /  12 °C 44.6 °F /  7 °C 30.3in /  1025.77hPa N 18.6mph /  30km/h 16.8mph /  27km/h 71% 0in /  0mm 656 W/m2
10:49 53.6 °F /  12 °C 44.6 °F /  7 °C 30.3in /  1025.7hPa N 21.7mph /  35km/h 16.8mph /  27km/h 71% 0in /  0mm 657 W/m2
10:54 53.6 °F /  12 °C 44.6 °F /  7 °C 30.3in /  1025.64hPa N 18.6mph /  30km/h 13.7mph /  22km/h 71% 0in /  0mm 657 W/m2
10:59 53.6 °F /  12 °C 44.6 °F /  7 °C 30.3in /  1025.64hPa N 20.5mph /  33km/h 17.4mph /  28km/h 71% 0in /  0mm 548 W/m2
11:04 53.6 °F /  12 °C 44.6 °F /  7 °C 30.3in /  1025.64hPa N 21.7mph /  35km/h 19.9mph /  32km/h 70% 0in /  0mm 571 W/m2
11:09 53.6 °F /  12 °C 44.6 °F /  7 °C 30.3in /  1025.6hPa N 20.5mph /  33km/h 17.4mph /  28km/h 70% 0in /  0mm 589 W/m2
11:14 53.6 °F /  12 °C 44.6 °F /  7 °C 30.3in /  1025.67hPa N 17.4mph /  28km/h 16.2mph /  26km/h 70% 0in /  0mm 554 W/m2
11:19 53.6 °F /  12 °C 44.6 °F /  7 °C 30.3in /  1025.7hPa N 18mph /  29km/h 14.9mph /  24km/h 69% 0in /  0mm 517 W/m2
11:24 53.6 °F /  12 °C 44.6 °F /  7 °C 30.3in /  1025.77hPa N 17.4mph /  28km/h 14.9mph /  24km/h 70% 0in /  0mm 461 W/m2
11:29 53.6 °F /  12 °C 44.6 °F /  7 °C 30.3in /  1025.8hPa NNE 15.5mph /  25km/h 13.7mph /  22km/h 71% 0in /  0mm 473 W/m2
11:34 53.6 °F /  12 °C 44.6 °F /  7 °C 30.3in /  1025.84hPa N 14.9mph /  24km/h 13.7mph /  22km/h 71% 0in /  0mm 527 W/m2
11:39 53.6 °F /  12 °C 44.6 °F /  7 °C 30.3in /  1025.8hPa N 17.4mph /  28km/h 15.5mph /  25km/h 71% 0in /  0mm 524 W/m2
11:44 53.6 °F /  12 °C 42.8 °F /  6 °C 30.3in /  1025.8hPa N 18.6mph /  30km/h 15.5mph /  25km/h 70% 0in /  0mm 524 W/m2
11:49 53.6 °F /  12 °C 42.8 °F /  6 °C 30.3in /  1025.77hPa NNE 19.9mph /  32km/h 16.2mph /  26km/h 70% 0in /  0mm 519 W/m2
11:54 53.6 °F /  12 °C 42.8 °F /  6 °C 30.3in /  1025.77hPa N 18.6mph /  30km/h 16.2mph /  26km/h 69% 0in /  0mm 478 W/m2
11:59 53.6 °F /  12 °C 44.6 °F /  7 °C 30.3in /  1025.84hPa NNE 17.4mph /  28km/h 14.3mph /  23km/h 71% 0in /  0mm 628 W/m2
12:04 53.6 °F /  12 °C 42.8 °F /  6 °C 30.3in /  1025.84hPa N 19.3mph /  31km/h 16.2mph /  26km/h 70% 0in /  0mm 686 W/m2
12:09 53.6 °F /  12 °C 42.8 °F /  6 °C 30.3in /  1025.84hPa N 21.1mph /  34km/h 16.2mph /  26km/h 69% 0in /  0mm 731 W/m2
12:14 53.6 °F /  12 °C 42.8 °F /  6 °C 30.3in /  1025.84hPa N 19.3mph /  31km/h 15.5mph /  25km/h 70% 0in /  0mm 761 W/m2
12:19 53.6 °F /  12 °C 44.6 °F /  7 °C 30.3in /  1025.8hPa NNE 17.4mph /  28km/h 13.7mph /  22km/h 70% 0in /  0mm 810 W/m2
12:24 53.6 °F /  12 °C 44.6 °F /  7 °C 30.3in /  1025.87hPa NNE 13.7mph /  22km/h 11.8mph /  19km/h 70% 0in /  0mm 791 W/m2
12:29 53.6 °F /  12 °C 44.6 °F /  7 °C 30.3in /  1025.84hPa NNE 16.2mph /  26km/h 13mph /  21km/h 69% 0in /  0mm 705 W/m2
12:34 53.6 °F /  12 °C 42.8 °F /  6 °C 30.3in /  1025.84hPa N 16.8mph /  27km/h 13mph /  21km/h 69% 0in /  0mm 689 W/m2
12:39 53.6 °F /  12 °C 42.8 °F /  6 °C 30.3in /  1025.84hPa NNE 15.5mph /  25km/h 13mph /  21km/h 69% 0in /  0mm 613 W/m2
12:44 53.6 °F /  12 °C 44.6 °F /  7 °C 30.3in /  1025.8hPa N 15.5mph /  25km/h 12.4mph /  20km/h 70% 0in /  0mm 606 W/m2
12:49 53.6 °F /  12 °C 44.6 °F /  7 °C 30.3in /  1025.8hPa N 15.5mph /  25km/h 13.7mph /  22km/h 71% 0in /  0mm 494 W/m2
12:54 53.6 °F /  12 °C 44.6 °F /  7 °C 30.3in /  1025.8hPa NNE 13.7mph /  22km/h 11.8mph /  19km/h 72% 0in /  0mm 577 W/m2
12:59 53.6 °F /  12 °C 44.6 °F /  7 °C 30.3in /  1025.84hPa NNE 14.3mph /  23km/h 11.8mph /  19km/h 71% 0in /  0mm 671 W/m2
13:04 53.6 °F /  12 °C 44.6 °F /  7 °C 30.3in /  1025.87hPa NNE 13mph /  21km/h 10.6mph /  17km/h 71% 0in /  0mm 671 W/m2
13:09 53.6 °F /  12 °C 44.6 °F /  7 °C 30.3in /  1025.87hPa N 14.3mph /  23km/h 11.8mph /  19km/h 70% 0in /  0mm 656 W/m2
13:14 53.6 °F /  12 °C 44.6 °F /  7 °C 30.3in /  1025.91hPa NNE 17.4mph /  28km/h 13.7mph /  22km/h 70% 0in /  0mm 726 W/m2
13:19 53.6 °F /  12 °C 44.6 °F /  7 °C 30.3in /  1025.87hPa NNE 15.5mph /  25km/h 13mph /  21km/h 70% 0in /  0mm 763 W/m2
13:24 53.6 °F /  12 °C 44.6 °F /  7 °C 30.3in /  1025.91hPa NNE 13mph /  21km/h 9.9mph /  16km/h 70% 0in /  0mm 817 W/m2
13:29 53.6 °F /  12 °C 44.6 °F /  7 °C 30.3in /  1025.87hPa N 13.7mph /  22km/h 11.2mph /  18km/h 70% 0in /  0mm 817 W/m2
13:34 53.6 °F /  12 °C 44.6 °F /  7 °C 30.3in /  1025.87hPa N 14.9mph /  24km/h 11.8mph /  19km/h 71% 0in /  0mm 798 W/m2
13:39 53.6 °F /  12 °C 44.6 °F /  7 °C 30.3in /  1025.87hPa NNE 16.8mph /  27km/h 14.3mph /  23km/h 70% 0in /  0mm 854 W/m2
13:44 53.6 °F /  12 °C 44.6 °F /  7 °C 30.3in /  1025.91hPa NNE 14.9mph /  24km/h 13mph /  21km/h 71% 0in /  0mm 856 W/m2
13:49 53.6 °F /  12 °C 44.6 °F /  7 °C 30.3in /  1025.84hPa N 15.5mph /  25km/h 12.4mph /  20km/h 69% 0in /  0mm 830 W/m2
13:54 53.6 °F /  12 °C 44.6 °F /  7 °C 30.3in /  1025.84hPa N 16.2mph /  26km/h 14.3mph /  23km/h 69% 0in /  0mm 800 W/m2
13:59 53.6 °F /  12 °C 44.6 °F /  7 °C 30.3in /  1025.87hPa NNE 16.2mph /  26km/h 11.8mph /  19km/h 71% 0in /  0mm 714 W/m2
14:04 53.6 °F /  12 °C 44.6 °F /  7 °C 30.3in /  1025.8hPa NNE 13.7mph /  22km/h 11.8mph /  19km/h 71% 0in /  0mm 744 W/m2
14:09 53.6 °F /  12 °C 44.6 °F /  7 °C 30.3in /  1025.84hPa NNE 16.2mph /  26km/h 13.7mph /  22km/h 71% 0in /  0mm 789 W/m2
14:14 53.6 °F /  12 °C 44.6 °F /  7 °C 30.3in /  1025.84hPa NNE 16.2mph /  26km/h 13mph /  21km/h 71% 0in /  0mm 761 W/m2
14:19 53.6 °F /  12 °C 44.6 °F /  7 °C 30.3in /  1025.84hPa NNE 14.9mph /  24km/h 11.8mph /  19km/h 71% 0in /  0mm 656 W/m2
14:24 53.6 °F /  12 °C 44.6 °F /  7 °C 30.3in /  1025.84hPa NNE 13.7mph /  22km/h 11.8mph /  19km/h 71% 0in /  0mm 622 W/m2
14:29 53.6 °F /  12 °C 44.6 °F /  7 °C 30.3in /  1025.94hPa NNE 18mph /  29km/h 13.7mph /  22km/h 71% 0in /  0mm 712 W/m2
14:34 53.6 °F /  12 °C 44.6 °F /  7 °C 30.3in /  1025.94hPa NNE 13.7mph /  22km/h 10.6mph /  17km/h 72% 0in /  0mm 777 W/m2
14:39 53.6 °F /  12 °C 44.6 °F /  7 °C 30.3in /  1025.94hPa N 15.5mph /  25km/h 13.7mph /  22km/h 71% 0in /  0mm 759 W/m2
14:44 53.6 °F /  12 °C 44.6 °F /  7 °C 30.3in /  1025.94hPa N 13.7mph /  22km/h 11.2mph /  18km/h 72% 0in /  0mm 747 W/m2
14:49 53.6 °F /  12 °C 44.6 °F /  7 °C 30.3in /  1025.94hPa NNE 13mph /  21km/h 11.2mph /  18km/h 73% 0in /  0mm 742 W/m2
14:54 53.6 °F /  12 °C 44.6 °F /  7 °C 30.3in /  1025.94hPa N 14.9mph /  24km/h 14.3mph /  23km/h 71% 0in /  0mm 751 W/m2
14:59 53.6 °F /  12 °C 44.6 °F /  7 °C 30.3in /  1025.94hPa NNE 14.3mph /  23km/h 11.2mph /  18km/h 72% 0in /  0mm 766 W/m2
15:04 53.6 °F /  12 °C 44.6 °F /  7 °C 30.3in /  1025.91hPa NNE 14.3mph /  23km/h 13.7mph /  22km/h 72% 0in /  0mm 770 W/m2
15:09 53.6 °F /  12 °C 44.6 °F /  7 °C 30.3in /  1025.91hPa NNE 12.4mph /  20km/h 11.2mph /  18km/h 72% 0in /  0mm 798 W/m2
15:14 53.6 °F /  12 °C 44.6 °F /  7 °C 30.3in /  1025.84hPa N 13.7mph /  22km/h 11.2mph /  18km/h 71% 0in /  0mm 738 W/m2
15:19 53.6 °F /  12 °C 44.6 °F /  7 °C 30.3in /  1025.74hPa N 13mph /  21km/h 9.9mph /  16km/h 72% 0in /  0mm 744 W/m2
15:24 53.6 °F /  12 °C 44.6 °F /  7 °C 30.3in /  1025.74hPa N 13.7mph /  22km/h 11.8mph /  19km/h 72% 0in /  0mm 735 W/m2
15:29 53.6 °F /  12 °C 44.6 °F /  7 °C 30.3in /  1025.7hPa NNE 11.2mph /  18km/h 8.7mph /  14km/h 72% 0in /  0mm 703 W/m2
15:34 53.6 °F /  12 °C 44.6 °F /  7 °C 30.3in /  1025.67hPa NNE 13mph /  21km/h 8.7mph /  14km/h 71% 0in /  0mm 707 W/m2
15:39 53.6 °F /  12 °C 44.6 °F /  7 °C 30.3in /  1025.6hPa NNE 12.4mph /  20km/h 9.9mph /  16km/h 71% 0in /  0mm 707 W/m2
15:44 53.6 °F /  12 °C 44.6 °F /  7 °C 30.3in /  1025.64hPa NNE 13mph /  21km/h 9.9mph /  16km/h 70% 0in /  0mm 705 W/m2
15:49 53.6 °F /  12 °C 44.6 °F /  7 °C 30.3in /  1025.64hPa NE 11.8mph /  19km/h 9.9mph /  16km/h 70% 0in /  0mm 701 W/m2
15:54 53.6 °F /  12 °C 44.6 °F /  7 °C 30.3in /  1025.6hPa NNE 10.6mph /  17km/h 8.7mph /  14km/h 70% 0in /  0mm 698 W/m2
15:59 53.6 °F /  12 °C 44.6 °F /  7 °C 30.3in /  1025.57hPa NNE 10.6mph /  17km/h 8.1mph /  13km/h 69% 0in /  0mm 694 W/m2
16:04 55.4 °F /  13 °C 44.6 °F /  7 °C 30.3in /  1025.57hPa NNE 9.9mph /  16km/h 8.1mph /  13km/h 69% 0in /  0mm 691 W/m2
16:09 55.4 °F /  13 °C 44.6 °F /  7 °C 30.3in /  1025.53hPa NE 10.6mph /  17km/h 8.1mph /  13km/h 69% 0in /  0mm 675 W/m2
16:14 55.4 °F /  13 °C 44.6 °F /  7 °C 30.3in /  1025.5hPa NNE 10.6mph /  17km/h 8.1mph /  13km/h 69% 0in /  0mm 664 W/m2
16:19 55.4 °F /  13 °C 44.6 °F /  7 °C 30.3in /  1025.43hPa NNE 11.2mph /  18km/h 9.9mph /  16km/h 69% 0in /  0mm 654 W/m2
16:24 53.6 °F /  12 °C 44.6 °F /  7 °C 30.3in /  1025.43hPa NNE 11.8mph /  19km/h 9.3mph /  15km/h 69% 0in /  0mm 649 W/m2
16:29 53.6 °F /  12 °C 44.6 °F /  7 °C 30.3in /  1025.4hPa NNE 11.8mph /  19km/h 9.3mph /  15km/h 69% 0in /  0mm 640 W/m2
16:34 53.6 °F /  12 °C 44.6 °F /  7 °C 30.3in /  1025.33hPa N 11.8mph /  19km/h 9.3mph /  15km/h 69% 0in /  0mm 633 W/m2
16:39 55.4 °F /  13 °C 44.6 °F /  7 °C 30.3in /  1025.3hPa NNE 11.2mph /  18km/h 8.1mph /  13km/h 68% 0in /  0mm 631 W/m2
16:44 53.6 °F /  12 °C 44.6 °F /  7 °C 30.3in /  1025.23hPa NNE 10.6mph /  17km/h 8.1mph /  13km/h 69% 0in /  0mm 686 W/m2
16:49 53.6 °F /  12 °C 44.6 °F /  7 °C 30.3in /  1025.23hPa NNE 11.2mph /  18km/h 8.1mph /  13km/h 69% 0in /  0mm 686 W/m2
16:54 55.4 °F /  13 °C 44.6 °F /  7 °C 30.3in /  1025.2hPa NE 10.6mph /  17km/h 7.5mph /  12km/h 68% 0in /  0mm 642 W/m2
16:59 55.4 °F /  13 °C 44.6 °F /  7 °C 30.3in /  1025.13hPa NE 8.7mph /  14km/h 6.2mph /  10km/h 69% 0in /  0mm 631 W/m2
17:04 55.4 °F /  13 °C 44.6 °F /  7 °C 30.3in /  1025.09hPa NNE 9.3mph /  15km/h 7.5mph /  12km/h 69% 0in /  0mm 603 W/m2
17:09 55.4 °F /  13 °C 44.6 °F /  7 °C 30.3in /  1025.09hPa NNE 8.1mph /  13km/h 6.8mph /  11km/h 69% 0in /  0mm 571 W/m2
17:14 55.4 °F /  13 °C 44.6 °F /  7 °C 30.3in /  1025.13hPa NNE 8.1mph /  13km/h 7.5mph /  12km/h 69% 0in /  0mm 392 W/m2
17:19 55.4 °F /  13 °C 44.6 °F /  7 °C 30.3in /  1025.13hPa NNE 9.9mph /  16km/h 6.8mph /  11km/h 70% 0in /  0mm 587 W/m2
17:24 55.4 °F /  13 °C 44.6 °F /  7 °C 30.3in /  1025.03hPa NNE 9.9mph /  16km/h 8.1mph /  13km/h 69% 0in /  0mm 570 W/m2
17:29 55.4 °F /  13 °C 44.6 °F /  7 °C 30.3in /  1025.03hPa NNE 9.9mph /  16km/h 8.7mph /  14km/h 69% 0in /  0mm 554 W/m2
17:34 55.4 °F /  13 °C 44.6 °F /  7 °C 30.3in /  1025.03hPa NNE 9.3mph /  15km/h 8.1mph /  13km/h 68% 0in /  0mm 533 W/m2
17:39 55.4 °F /  13 °C 44.6 °F /  7 °C 30.3in /  1025.03hPa NNE 11.2mph /  18km/h 9.3mph /  15km/h 68% 0in /  0mm 522 W/m2
17:44 53.6 °F /  12 °C 44.6 °F /  7 °C 30.3in /  1025.06hPa N 11.8mph /  19km/h 9.9mph /  16km/h 69% 0in /  0mm 515 W/m2
17:49 53.6 °F /  12 °C 44.6 °F /  7 °C 30.3in /  1025.06hPa NNE 11.8mph /  19km/h 9.9mph /  16km/h 70% 0in /  0mm 462 W/m2
17:54 53.6 °F /  12 °C 44.6 °F /  7 °C 30.3in /  1024.99hPa NNE 10.6mph /  17km/h 8.1mph /  13km/h 70% 0in /  0mm 457 W/m2
17:59 53.6 °F /  12 °C 44.6 °F /  7 °C 30.3in /  1024.89hPa NNE 9.9mph /  16km/h 8.7mph /  14km/h 69% 0in /  0mm 431 W/m2
18:04 53.6 °F /  12 °C 44.6 °F /  7 °C 30.3in /  1024.86hPa NNE 9.3mph /  15km/h 7.5mph /  12km/h 71% 0in /  0mm 364 W/m2
18:09 53.6 °F /  12 °C 44.6 °F /  7 °C 30.3in /  1024.79hPa NE 8.1mph /  13km/h 6.2mph /  10km/h 71% 0in /  0mm 246 W/m2
18:14 53.6 °F /  12 °C 44.6 °F /  7 °C 30.3in /  1024.79hPa NE 7.5mph /  12km/h 5.6mph /  9km/h 72% 0in /  0mm 251 W/m2
18:19 53.6 °F /  12 °C 46.4 °F /  8 °C 30.3in /  1024.72hPa NE 6.8mph /  11km/h 6.8mph /  11km/h 72% 0in /  0mm 214 W/m2
18:24 53.6 °F /  12 °C 44.6 °F /  7 °C 30.3in /  1024.69hPa ENE 7.5mph /  12km/h 5.6mph /  9km/h 72% 0in /  0mm 174 W/m2
18:29 53.6 °F /  12 °C 46.4 °F /  8 °C 30.3in /  1024.69hPa NE 6.8mph /  11km/h 5.6mph /  9km/h 72% 0in /  0mm 206 W/m2
18:34 53.6 °F /  12 °C 46.4 °F /  8 °C 30.3in /  1024.69hPa ENE 6.2mph /  10km/h 5mph /  8km/h 72% 0in /  0mm 279 W/m2
18:39 53.6 °F /  12 °C 44.6 °F /  7 °C 30.3in /  1024.65hPa NNE 6.2mph /  10km/h 5mph /  8km/h 70% 0in /  0mm 301 W/m2
18:44 55.4 °F /  13 °C 44.6 °F /  7 °C 30.3in /  1024.62hPa NE 7.5mph /  12km/h 5.6mph /  9km/h 68% 0in /  0mm 320 W/m2
18:49 55.4 °F /  13 °C 44.6 °F /  7 °C 30.3in /  1024.59hPa ENE 6.8mph /  11km/h 5mph /  8km/h 67% 0in /  0mm 304 W/m2
18:54 55.4 °F /  13 °C 44.6 °F /  7 °C 30.3in /  1024.59hPa NE 6.8mph /  11km/h 5mph /  8km/h 68% 0in /  0mm 348 W/m2
18:59 55.4 °F /  13 °C 44.6 °F /  7 °C 30.3in /  1024.55hPa NE 6.2mph /  10km/h 4.3mph /  7km/h 67% 0in /  0mm 343 W/m2
19:04 55.4 °F /  13 °C 44.6 °F /  7 °C 30.3in /  1024.52hPa NE 6.2mph /  10km/h 5.6mph /  9km/h 67% 0in /  0mm 211 W/m2
19:09 55.4 °F /  13 °C 44.6 °F /  7 °C 30.3in /  1024.45hPa NE 6.2mph /  10km/h 5mph /  8km/h 67% 0in /  0mm 169 W/m2
19:14 55.4 °F /  13 °C 44.6 °F /  7 °C 30.3in /  1024.42hPa ENE 6.2mph /  10km/h 4.3mph /  7km/h 67% 0in /  0mm 153 W/m2
19:19 55.4 °F /  13 °C 44.6 °F /  7 °C 30.3in /  1024.42hPa NE 6.8mph /  11km/h 5mph /  8km/h 67% 0in /  0mm 148 W/m2
19:24 55.4 °F /  13 °C 44.6 °F /  7 °C 30.3in /  1024.42hPa NNE 8.1mph /  13km/h 6.2mph /  10km/h 66% 0in /  0mm 142 W/m2
19:29 55.4 °F /  13 °C 42.8 °F /  6 °C 30.3in /  1024.42hPa ENE 6.8mph /  11km/h 5.6mph /  9km/h 66% 0in /  0mm 169 W/m2
19:34 55.4 °F /  13 °C 44.6 °F /  7 °C 30.3in /  1024.42hPa NNE 8.1mph /  13km/h 5.6mph /  9km/h 66% 0in /  0mm 171 W/m2
19:39 55.4 °F /  13 °C 42.8 °F /  6 °C 30.3in /  1024.42hPa NNE 9.9mph /  16km/h 7.5mph /  12km/h 64% 0in /  0mm 139 W/m2
19:44 55.4 °F /  13 °C 42.8 °F /  6 °C 30.3in /  1024.42hPa NE 7.5mph /  12km/h 5mph /  8km/h 65% 0in /  0mm 121 W/m2
19:49 55.4 °F /  13 °C 42.8 °F /  6 °C 30.3in /  1024.42hPa NNE 8.7mph /  14km/h 7.5mph /  12km/h 65% 0in /  0mm 118 W/m2
19:54 55.4 °F /  13 °C 42.8 °F /  6 °C 30.3in /  1024.42hPa NNE 9.3mph /  15km/h 7.5mph /  12km/h 64% 0in /  0mm 163 W/m2
19:59 55.4 °F /  13 °C 42.8 °F /  6 °C 30.3in /  1024.42hPa NNE 8.1mph /  13km/h 7.5mph /  12km/h 63% 0in /  0mm 171 W/m2
20:04 55.4 °F /  13 °C 42.8 °F /  6 °C 30.3in /  1024.42hPa NE 6.8mph /  11km/h 7.5mph /  12km/h 64% 0in /  0mm 171 W/m2
20:09 55.4 °F /  13 °C 42.8 °F /  6 °C 30.3in /  1024.48hPa NE 6.8mph /  11km/h 5.6mph /  9km/h 64% 0in /  0mm 165 W/m2
20:14 55.4 °F /  13 °C 42.8 °F /  6 °C 30.3in /  1024.48hPa NE 7.5mph /  12km/h 6.2mph /  10km/h 64% 0in /  0mm 162 W/m2
20:19 55.4 °F /  13 °C 42.8 °F /  6 °C 30.3in /  1024.45hPa NNE 8.1mph /  13km/h 6.2mph /  10km/h 63% 0in /  0mm 123 W/m2
20:24 55.4 °F /  13 °C 42.8 °F /  6 °C 30.3in /  1024.45hPa NE 6.2mph /  10km/h 4.3mph /  7km/h 63% 0in /  0mm 137 W/m2
20:29 55.4 °F /  13 °C 42.8 °F /  6 °C 30.3in /  1024.42hPa ENE 7.5mph /  12km/h 5.6mph /  9km/h 62% 0in /  0mm 137 W/m2
20:34 55.4 °F /  13 °C 42.8 °F /  6 °C 30.3in /  1024.45hPa NE 7.5mph /  12km/h 5.6mph /  9km/h 61% 0in /  0mm 127 W/m2
20:39 55.4 °F /  13 °C 42.8 °F /  6 °C 30.3in /  1024.42hPa NE 6.8mph /  11km/h 5.6mph /  9km/h 62% 0in /  0mm 114 W/m2
20:44 55.4 °F /  13 °C 41 °F /  5 °C 30.3in /  1024.42hPa NNE 7.5mph /  12km/h 5mph /  8km/h 61% 0in /  0mm 69 W/m2
20:49 55.4 °F /  13 °C 41 °F /  5 °C 30.3in /  1024.45hPa NNE 8.1mph /  13km/h 6.2mph /  10km/h 61% 0in /  0mm 84 W/m2
20:54 55.4 °F /  13 °C 41 °F /  5 °C 30.3in /  1024.45hPa NNE 8.1mph /  13km/h 6.2mph /  10km/h 60% 0in /  0mm 72 W/m2
20:59 55.4 °F /  13 °C 41 °F /  5 °C 30.3in /  1024.38hPa NNE 8.7mph /  14km/h 6.2mph /  10km/h 60% 0in /  0mm 33 W/m2
21:04 55.4 °F /  13 °C 41 °F /  5 °C 30.3in /  1024.38hPa N 8.1mph /  13km/h 6.8mph /  11km/h 60% 0in /  0mm 26 W/m2
21:09 55.4 °F /  13 °C 41 °F /  5 °C 30.3in /  1024.38hPa NNE 8.1mph /  13km/h 6.8mph /  11km/h 60% 0in /  0mm 25 W/m2
21:14 55.4 °F /  13 °C 41 °F /  5 °C 30.3in /  1024.38hPa NNE 9.9mph /  16km/h 7.5mph /  12km/h 59% 0in /  0mm 21 W/m2
21:19 53.6 °F /  12 °C 41 °F /  5 °C 30.3in /  1024.31hPa NNE 9.3mph /  15km/h 6.8mph /  11km/h 60% 0in /  0mm 18 W/m2
21:24 53.6 °F /  12 °C 41 °F /  5 °C 30.3in /  1024.31hPa NNE 9.9mph /  16km/h 8.7mph /  14km/h 60% 0in /  0mm 16 W/m2
21:29 53.6 °F /  12 °C 41 °F /  5 °C 30.3in /  1024.38hPa NNE 9.9mph /  16km/h 7.5mph /  12km/h 60% 0in /  0mm 14 W/m2
21:34 53.6 °F /  12 °C 41 °F /  5 °C 30.3in /  1024.42hPa NNE 9.3mph /  15km/h 7.5mph /  12km/h 59% 0in /  0mm 12 W/m2
21:39 53.6 °F /  12 °C 41 °F /  5 °C 30.3in /  1024.42hPa NE 9.3mph /  15km/h 7.5mph /  12km/h 59% 0in /  0mm 11 W/m2
21:44 53.6 °F /  12 °C 41 °F /  5 °C 30.3in /  1024.42hPa NNE 8.1mph /  13km/h 6.8mph /  11km/h 59% 0in /  0mm 9 W/m2
21:49 53.6 °F /  12 °C 41 °F /  5 °C 30.3in /  1024.38hPa NNE 8.1mph /  13km/h 6.2mph /  10km/h 59% 0in /  0mm 7 W/m2
21:54 53.6 °F /  12 °C 41 °F /  5 °C 30.3in /  1024.38hPa NNE 8.1mph /  13km/h 6.2mph /  10km/h 59% 0in /  0mm 5 W/m2
21:59 53.6 °F /  12 °C 41 °F /  5 °C 30.3in /  1024.38hPa NNE 8.1mph /  13km/h 6.2mph /  10km/h 60% 0in /  0mm 5 W/m2
22:04 53.6 °F /  12 °C 41 °F /  5 °C 30.3in /  1024.38hPa NNE 8.1mph /  13km/h 6.2mph /  10km/h 60% 0in /  0mm 0 W/m2
22:09 53.6 °F /  12 °C 41 °F /  5 °C 30.3in /  1024.42hPa NNE 7.5mph /  12km/h 6.2mph /  10km/h 62% 0in /  0mm 0 W/m2
22:14 53.6 °F /  12 °C 41 °F /  5 °C 30.3in /  1024.42hPa NE 8.7mph /  14km/h 6.8mph /  11km/h 61% 0in /  0mm 0 W/m2
22:19 53.6 °F /  12 °C 41 °F /  5 °C 30.3in /  1024.42hPa NNE 9.3mph /  15km/h 6.8mph /  11km/h 60% 0in /  0mm 0 W/m2
22:24 53.6 °F /  12 °C 41 °F /  5 °C 30.3in /  1024.38hPa NE 7.5mph /  12km/h 5.6mph /  9km/h 60% 0in /  0mm 0 W/m2
22:29 53.6 °F /  12 °C 41 °F /  5 °C 30.3in /  1024.35hPa NNE 6.2mph /  10km/h 5.6mph /  9km/h 62% 0in /  0mm 0 W/m2
22:34 53.6 °F /  12 °C 41 °F /  5 °C 30.3in /  1024.35hPa NE 7.5mph /  12km/h 6.2mph /  10km/h 62% 0in /  0mm 0 W/m2
22:39 53.6 °F /  12 °C 41 °F /  5 °C 30.3in /  1024.35hPa NNE 8.1mph /  13km/h 6.2mph /  10km/h 61% 0in /  0mm 0 W/m2
22:44 53.6 °F /  12 °C 41 °F /  5 °C 30.3in /  1024.31hPa NE 7.5mph /  12km/h 6.8mph /  11km/h 62% 0in /  0mm 0 W/m2
22:49 53.6 °F /  12 °C 41 °F /  5 °C 30.3in /  1024.31hPa NNE 8.1mph /  13km/h 7.5mph /  12km/h 61% 0in /  0mm 0 W/m2
22:54 53.6 °F /  12 °C 41 °F /  5 °C 30.3in /  1024.38hPa NNE 8.7mph /  14km/h 6.2mph /  10km/h 61% 0in /  0mm 0 W/m2
22:59 53.6 °F /  12 °C 41 °F /  5 °C 30.3in /  1024.42hPa NNE 6.8mph /  11km/h 5.6mph /  9km/h 61% 0in /  0mm 0 W/m2
23:04 53.6 °F /  12 °C 41 °F /  5 °C 30.3in /  1024.45hPa NNE 8.1mph /  13km/h 6.2mph /  10km/h 61% 0in /  0mm 0 W/m2
23:09 53.6 °F /  12 °C 41 °F /  5 °C 30.3in /  1024.45hPa NNE 8.1mph /  13km/h 6.8mph /  11km/h 61% 0in /  0mm 0 W/m2
23:14 53.6 °F /  12 °C 41 °F /  5 °C 30.3in /  1024.38hPa NE 7.5mph /  12km/h 6.2mph /  10km/h 62% 0in /  0mm 0 W/m2
23:19 53.6 °F /  12 °C 41 °F /  5 °C 30.3in /  1024.35hPa NE 6.8mph /  11km/h 4.3mph /  7km/h 61% 0in /  0mm 0 W/m2
23:24 53.6 °F /  12 °C 41 °F /  5 °C 30.3in /  1024.35hPa NNE 8.1mph /  13km/h 6.2mph /  10km/h 62% 0in /  0mm 0 W/m2
23:29 53.6 °F /  12 °C 41 °F /  5 °C 30.2in /  1024.25hPa NNE 8.1mph /  13km/h 6.2mph /  10km/h 62% 0in /  0mm 0 W/m2
23:34 53.6 °F /  12 °C 41 °F /  5 °C 30.2in /  1024.25hPa NE 6.8mph /  11km/h 5.6mph /  9km/h 63% 0in /  0mm 0 W/m2
23:39 53.6 °F /  12 °C 41 °F /  5 °C 30.3in /  1024.28hPa NNE 7.5mph /  12km/h 5.6mph /  9km/h 63% 0in /  0mm 0 W/m2
23:44 53.6 °F /  12 °C 41 °F /  5 °C 30.2in /  1024.25hPa NNE 8.1mph /  13km/h 6.2mph /  10km/h 64% 0in /  0mm 0 W/m2
23:49 53.6 °F /  12 °C 41 °F /  5 °C 30.2in /  1024.25hPa NNE 9.3mph /  15km/h 7.5mph /  12km/h 63% 0in /  0mm 0 W/m2
23:54 53.6 °F /  12 °C 41 °F /  5 °C 30.2in /  1024.25hPa NNE 7.5mph /  12km/h 6.2mph /  10km/h 63% 0in /  0mm 0 W/m2
23:59 53.6 °F /  12 °C 42.8 °F /  6 °C 30.3in /  1024.28hPa NNE 6.8mph /  11km/h 5.6mph /  9km/h 64% 0in /  0mm 0 W/m2
Compliments of Weather Underground - 2 mb